createdAt,value
2022-08-14T18:58:27.930Z,23.72
2022-08-14T19:00:58.911Z,23.32
2022-08-14T19:03:45.534Z,23.08
2022-08-14T19:06:16.477Z,22.77
2022-08-14T19:08:48.999Z,22.50
2022-08-14T19:11:40.680Z,22.27
2022-08-14T19:14:13.259Z,22.05
2022-08-14T19:16:42.782Z,21.84
2022-08-14T19:19:11.794Z,21.60
2022-08-14T19:21:55.335Z,21.29
2022-08-14T19:24:45.262Z,20.99
2022-08-14T19:27:24.082Z,20.58
2022-08-14T19:30:20.147Z,20.23
2022-08-14T19:32:50.715Z,19.96
2022-08-14T19:35:49.334Z,19.74
2022-08-14T19:38:32.434Z,19.55
2022-08-14T19:41:12.840Z,19.40
2022-08-14T19:43:55.505Z,19.34
2022-08-14T19:46:37.848Z,19.28
2022-08-14T19:49:07.145Z,19.29
2022-08-14T19:51:46.735Z,19.25
2022-08-14T19:54:16.039Z,19.28
2022-08-14T19:56:45.876Z,19.29
2022-08-14T19:59:19.291Z,19.29
2022-08-14T20:01:52.365Z,19.26
2022-08-14T20:04:46.129Z,19.17
2022-08-14T20:07:59.327Z,19.13
2022-08-14T20:11:05.638Z,19.08
2022-08-14T20:13:23.697Z,19.01
2022-08-14T20:15:51.513Z,18.98
2022-08-14T20:18:48.751Z,18.94
2022-08-14T20:21:13.879Z,18.93
2022-08-14T20:23:41.947Z,18.89
2022-08-14T20:26:31.293Z,18.82
2022-08-14T20:29:05.297Z,18.83
2022-08-14T20:31:36.971Z,18.87
2022-08-14T20:34:24.413Z,18.93
2022-08-14T20:37:10.023Z,18.84
2022-08-14T20:39:43.667Z,18.76
2022-08-14T20:42:39.325Z,18.66
2022-08-14T20:45:21.681Z,18.57
2022-08-14T20:48:02.539Z,18.47
2022-08-14T20:50:34.710Z,18.28
2022-08-14T20:53:32.682Z,18.30
2022-08-14T20:56:04.544Z,18.25
2022-08-14T20:58:50.584Z,18.27
2022-08-14T21:01:18.756Z,18.31
2022-08-14T21:03:56.687Z,18.34
2022-08-14T21:07:23.336Z,18.36
2022-08-14T21:09:43.933Z,18.35
2022-08-14T21:12:33.958Z,18.35
2022-08-14T21:15:00.807Z,18.38
2022-08-14T21:17:29.207Z,18.39
2022-08-14T21:19:56.763Z,18.41
2022-08-14T21:22:23.917Z,18.40
2022-08-14T21:25:02.807Z,18.37
2022-08-14T21:27:37.365Z,18.32
2022-08-14T21:30:08.524Z,18.26
2022-08-14T21:32:50.183Z,18.19
2022-08-14T21:35:26.149Z,18.10
2022-08-14T21:37:53.915Z,18.08
2022-08-14T21:40:40.609Z,18.07
2022-08-14T21:43:19.502Z,18.07
2022-08-14T21:45:54.126Z,18.06
2022-08-14T21:48:29.728Z,17.97
2022-08-14T21:51:52.307Z,17.93
2022-08-14T21:53:58.679Z,17.93
2022-08-14T21:56:38.703Z,17.87
2022-08-14T21:59:25.098Z,17.86
2022-08-14T22:02:01.508Z,17.90
2022-08-14T22:04:40.085Z,17.87
2022-08-14T22:07:17.378Z,17.95
2022-08-14T22:09:55.297Z,17.97
2022-08-14T22:12:57.727Z,17.97
2022-08-14T22:15:14.616Z,17.98
2022-08-14T22:17:44.327Z,17.99
2022-08-14T22:20:12.748Z,17.97
2022-08-14T22:22:44.713Z,17.91
2022-08-14T22:25:17.257Z,17.96
2022-08-14T22:27:55.421Z,17.94
2022-08-14T22:30:23.974Z,17.95
2022-08-14T22:32:57.589Z,17.97
2022-08-14T22:35:25.913Z,17.97
2022-08-14T22:38:01.827Z,17.95
2022-08-14T22:41:02.223Z,18.00
2022-08-14T22:43:35.370Z,17.99
2022-08-14T22:46:06.098Z,17.99
2022-08-14T22:48:43.357Z,17.98
2022-08-14T22:51:13.322Z,17.94
2022-08-14T22:53:40.618Z,17.89
2022-08-14T22:56:20.689Z,17.82
2022-08-14T22:58:53.730Z,17.79
2022-08-14T23:01:56.182Z,17.71
2022-08-14T23:04:34.118Z,17.61
2022-08-14T23:07:07.504Z,17.54
2022-08-14T23:09:56.555Z,17.46
2022-08-14T23:12:28.291Z,17.38
2022-08-14T23:14:56.174Z,17.31
2022-08-14T23:17:23.026Z,17.20
2022-08-14T23:19:56.486Z,17.18
2022-08-14T23:22:26.190Z,17.10
2022-08-14T23:24:57.902Z,17.05
2022-08-14T23:27:31.800Z,17.02
2022-08-14T23:30:31.825Z,16.99
2022-08-14T23:33:01.942Z,16.98
2022-08-14T23:35:29.457Z,16.97
2022-08-14T23:38:02.073Z,16.92
2022-08-14T23:40:30.982Z,16.89
2022-08-14T23:43:07.280Z,16.83
2022-08-14T23:45:36.814Z,16.82
2022-08-14T23:48:04.648Z,16.81
2022-08-14T23:50:38.912Z,16.80
2022-08-14T23:53:28.290Z,16.79
2022-08-14T23:56:33.013Z,16.75
2022-08-14T23:59:01.959Z,16.70
